sensor_id;sensor_type;location;lat;lon;timestamp;P1;durP1;ratioP1;P2;durP2;ratioP2
45252;SDS011;63171;50.520;30.486;2023-02-01T00:00:46;7.93;;;6.53;;
45252;SDS011;63171;50.520;30.486;2023-02-01T00:01:36;12.02;;;6.47;;
45252;SDS011;63171;50.520;30.486;2023-02-01T00:02:26;9.65;;;6.78;;
45252;SDS011;63171;50.520;30.486;2023-02-01T00:03:16;10.07;;;6.47;;
45252;SDS011;63171;50.520;30.486;2023-02-01T00:04:08;13.55;;;6.78;;
45252;SDS011;63171;50.520;30.486;2023-02-01T00:04:58;10.02;;;6.85;;
45252;SDS011;63171;50.520;30.486;2023-02-01T00:05:56;13.15;;;7.22;;
45252;SDS011;63171;50.520;30.486;2023-02-01T00:06:46;9.75;;;5.82;;
45252;SDS011;63171;50.520;30.486;2023-02-01T00:07:37;10.18;;;6.00;;
45252;SDS011;63171;50.520;30.486;2023-02-01T00:08:27;12.23;;;5.68;;
45252;SDS011;63171;50.520;30.486;2023-02-01T00:09:17;11.00;;;6.03;;
45252;SDS011;63171;50.520;30.486;2023-02-01T00:10:08;18.35;;;6.28;;
45252;SDS011;63171;50.520;30.486;2023-02-01T00:10:59;10.00;;;6.22;;
45252;SDS011;63171;50.520;30.486;2023-02-01T00:11:50;11.00;;;5.57;;
45252;SDS011;63171;50.520;30.486;2023-02-01T00:12:41;6.68;;;4.63;;
45252;SDS011;63171;50.520;30.486;2023-02-01T00:13:31;8.65;;;5.63;;
45252;SDS011;63171;50.520;30.486;2023-02-01T00:14:23;10.05;;;6.28;;
45252;SDS011;63171;50.520;30.486;2023-02-01T00:15:13;8.45;;;5.88;;
45252;SDS011;63171;50.520;30.486;2023-02-01T00:16:05;9.35;;;5.88;;
45252;SDS011;63171;50.520;30.486;2023-02-01T00:16:56;8.43;;;5.70;;
45252;SDS011;63171;50.520;30.486;2023-02-01T00:17:47;7.93;;;5.60;;
45252;SDS011;63171;50.520;30.486;2023-02-01T00:18:36;9.02;;;5.35;;
45252;SDS011;63171;50.520;30.486;2023-02-01T00:19:27;11.43;;;6.35;;
45252;SDS011;63171;50.520;30.486;2023-02-01T00:20:17;11.15;;;5.93;;
45252;SDS011;63171;50.520;30.486;2023-02-01T00:21:10;12.25;;;6.57;;
45252;SDS011;63171;50.520;30.486;2023-02-01T00:22:00;10.30;;;5.47;;
45252;SDS011;63171;50.520;30.486;2023-02-01T00:22:51;11.05;;;6.38;;
45252;SDS011;63171;50.520;30.486;2023-02-01T00:23:40;12.40;;;5.57;;
45252;SDS011;63171;50.520;30.486;2023-02-01T00:24:31;13.90;;;5.15;;
45252;SDS011;63171;50.520;30.486;2023-02-01T00:26:12;9.10;;;4.88;;
45252;SDS011;63171;50.520;30.486;2023-02-01T00:27:04;10.35;;;6.05;;
45252;SDS011;63171;50.520;30.486;2023-02-01T00:27:54;10.80;;;6.78;;
45252;SDS011;63171;50.520;30.486;2023-02-01T00:28:46;8.43;;;6.32;;
45252;SDS011;63171;50.520;30.486;2023-02-01T00:29:36;8.80;;;5.32;;
45252;SDS011;63171;50.520;30.486;2023-02-01T00:30:27;11.05;;;6.07;;
45252;SDS011;63171;50.520;30.486;2023-02-01T00:31:18;7.45;;;5.47;;
45252;SDS011;63171;50.520;30.486;2023-02-01T00:32:07;12.38;;;6.15;;
45252;SDS011;63171;50.520;30.486;2023-02-01T00:32:59;9.40;;;5.63;;
45252;SDS011;63171;50.520;30.486;2023-02-01T00:33:49;15.02;;;6.53;;
45252;SDS011;63171;50.520;30.486;2023-02-01T00:34:40;11.45;;;5.45;;
45252;SDS011;63171;50.520;30.486;2023-02-01T00:35:29;7.47;;;5.25;;
45252;SDS011;63171;50.520;30.486;2023-02-01T00:36:21;10.15;;;5.47;;
45252;SDS011;63171;50.520;30.486;2023-02-01T00:37:11;13.88;;;5.18;;
45252;SDS011;63171;50.520;30.486;2023-02-01T00:38:02;10.50;;;5.50;;
45252;SDS011;63171;50.520;30.486;2023-02-01T00:38:52;11.73;;;6.18;;
45252;SDS011;63171;50.520;30.486;2023-02-01T00:39:42;7.70;;;4.35;;
45252;SDS011;63171;50.520;30.486;2023-02-01T00:40:32;9.48;;;5.28;;
45252;SDS011;63171;50.520;30.486;2023-02-01T00:41:22;11.18;;;5.13;;
45252;SDS011;63171;50.520;30.486;2023-02-01T00:43:53;9.27;;;5.72;;
45252;SDS011;63171;50.520;30.486;2023-02-01T00:44:44;8.10;;;5.03;;
45252;SDS011;63171;50.520;30.486;2023-02-01T00:45:34;9.73;;;5.47;;
45252;SDS011;63171;50.520;30.486;2023-02-01T00:46:25;9.50;;;6.05;;
45252;SDS011;63171;50.520;30.486;2023-02-01T00:47:15;13.52;;;6.60;;
45252;SDS011;63171;50.520;30.486;2023-02-01T00:48:06;10.60;;;5.88;;
45252;SDS011;63171;50.520;30.486;2023-02-01T00:48:56;11.13;;;6.75;;
45252;SDS011;63171;50.520;30.486;2023-02-01T00:49:46;9.45;;;5.40;;
45252;SDS011;63171;50.520;30.486;2023-02-01T00:50:40;9.88;;;6.20;;
45252;SDS011;63171;50.520;30.486;2023-02-01T00:51:33;14.00;;;6.75;;
45252;SDS011;63171;50.520;30.486;2023-02-01T00:52:23;13.27;;;6.28;;
45252;SDS011;63171;50.520;30.486;2023-02-01T00:53:13;9.98;;;5.88;;
45252;SDS011;63171;50.520;30.486;2023-02-01T00:54:04;9.25;;;5.82;;
45252;SDS011;63171;50.520;30.486;2023-02-01T00:54:55;12.50;;;6.05;;
45252;SDS011;63171;50.520;30.486;2023-02-01T00:55:45;9.45;;;5.43;;
45252;SDS011;63171;50.520;30.486;2023-02-01T00:56:36;7.32;;;5.57;;
45252;SDS011;63171;50.520;30.486;2023-02-01T00:57:26;10.15;;;6.22;;
45252;SDS011;63171;50.520;30.486;2023-02-01T00:59:07;6.90;;;4.32;;
45252;SDS011;63171;50.520;30.486;2023-02-01T01:00:00;10.88;;;5.55;;
45252;SDS011;63171;50.520;30.486;2023-02-01T01:02:36;7.28;;;4.97;;
45252;SDS011;63171;50.520;30.486;2023-02-01T01:03:26;10.40;;;4.32;;
45252;SDS011;63171;50.520;30.486;2023-02-01T01:04:18;7.18;;;4.95;;
45252;SDS011;63171;50.520;30.486;2023-02-01T01:05:08;11.85;;;5.40;;
45252;SDS011;63171;50.520;30.486;2023-02-01T01:05:59;10.13;;;5.30;;
45252;SDS011;63171;50.520;30.486;2023-02-01T01:06:51;10.05;;;5.57;;
45252;SDS011;63171;50.520;30.486;2023-02-01T01:07:42;9.98;;;5.03;;
45252;SDS011;63171;50.520;30.486;2023-02-01T01:08:31;8.75;;;5.50;;
45252;SDS011;63171;50.520;30.486;2023-02-01T01:09:21;6.20;;;4.68;;
45252;SDS011;63171;50.520;30.486;2023-02-01T01:10:12;14.68;;;5.38;;
45252;SDS011;63171;50.520;30.486;2023-02-01T01:11:05;7.68;;;4.88;;
45252;SDS011;63171;50.520;30.486;2023-02-01T01:11:55;9.63;;;6.68;;
45252;SDS011;63171;50.520;30.486;2023-02-01T01:12:53;9.30;;;5.47;;
45252;SDS011;63171;50.520;30.486;2023-02-01T01:13:42;13.55;;;6.13;;
45252;SDS011;63171;50.520;30.486;2023-02-01T01:14:32;7.35;;;4.85;;
45252;SDS011;63171;50.520;30.486;2023-02-01T01:15:23;13.05;;;5.80;;
45252;SDS011;63171;50.520;30.486;2023-02-01T01:16:12;8.18;;;4.35;;
45252;SDS011;63171;50.520;30.486;2023-02-01T01:17:02;12.13;;;5.65;;
45252;SDS011;63171;50.520;30.486;2023-02-01T01:17:53;9.27;;;5.90;;
45252;SDS011;63171;50.520;30.486;2023-02-01T01:18:43;10.85;;;6.93;;
45252;SDS011;63171;50.520;30.486;2023-02-01T01:19:34;10.65;;;6.30;;
45252;SDS011;63171;50.520;30.486;2023-02-01T01:20:24;9.50;;;5.93;;
45252;SDS011;63171;50.520;30.486;2023-02-01T01:21:14;11.57;;;7.13;;
45252;SDS011;63171;50.520;30.486;2023-02-01T01:22:06;11.10;;;6.47;;
45252;SDS011;63171;50.520;30.486;2023-02-01T01:22:57;10.00;;;6.50;;
45252;SDS011;63171;50.520;30.486;2023-02-01T01:23:47;12.05;;;7.22;;
45252;SDS011;63171;50.520;30.486;2023-02-01T01:24:38;16.70;;;7.55;;
45252;SDS011;63171;50.520;30.486;2023-02-01T01:25:27;18.70;;;7.85;;
45252;SDS011;63171;50.520;30.486;2023-02-01T01:26:19;14.40;;;6.93;;
45252;SDS011;63171;50.520;30.486;2023-02-01T01:27:10;15.02;;;7.93;;
45252;SDS011;63171;50.520;30.486;2023-02-01T01:28:00;12.65;;;6.45;;
45252;SDS011;63171;50.520;30.486;2023-02-01T01:28:50;9.85;;;6.93;;
45252;SDS011;63171;50.520;30.486;2023-02-01T01:29:41;18.75;;;8.00;;
45252;SDS011;63171;50.520;30.486;2023-02-01T01:30:31;11.38;;;7.22;;
45252;SDS011;63171;50.520;30.486;2023-02-01T01:31:22;15.43;;;6.93;;
45252;SDS011;63171;50.520;30.486;2023-02-01T01:33:52;13.25;;;6.15;;
45252;SDS011;63171;50.520;30.486;2023-02-01T01:34:45;15.63;;;7.32;;
45252;SDS011;63171;50.520;30.486;2023-02-01T01:35:35;15.23;;;7.97;;
45252;SDS011;63171;50.520;30.486;2023-02-01T01:36:26;10.95;;;7.03;;
45252;SDS011;63171;50.520;30.486;2023-02-01T01:37:18;15.55;;;8.48;;
45252;SDS011;63171;50.520;30.486;2023-02-01T01:38:09;11.70;;;6.97;;
45252;SDS011;63171;50.520;30.486;2023-02-01T01:39:00;13.65;;;6.78;;
45252;SDS011;63171;50.520;30.486;2023-02-01T01:39:50;13.88;;;6.97;;
45252;SDS011;63171;50.520;30.486;2023-02-01T01:40:40;14.95;;;6.65;;
45252;SDS011;63171;50.520;30.486;2023-02-01T01:41:34;17.17;;;7.13;;
45252;SDS011;63171;50.520;30.486;2023-02-01T01:42:47;13.80;;;6.72;;
45252;SDS011;63171;50.520;30.486;2023-02-01T01:43:47;12.70;;;7.22;;
45252;SDS011;63171;50.520;30.486;2023-02-01T01:44:56;10.38;;;5.82;;
45252;SDS011;63171;50.520;30.486;2023-02-01T01:45:50;17.05;;;7.97;;
45252;SDS011;63171;50.520;30.486;2023-02-01T01:46:41;10.98;;;6.55;;
45252;SDS011;63171;50.520;30.486;2023-02-01T01:47:32;12.02;;;6.93;;
45252;SDS011;63171;50.520;30.486;2023-02-01T01:48:27;8.13;;;5.93;;
45252;SDS011;63171;50.520;30.486;2023-02-01T01:49:19;12.40;;;6.90;;
45252;SDS011;63171;50.520;30.486;2023-02-01T01:50:13;12.98;;;6.65;;
45252;SDS011;63171;50.520;30.486;2023-02-01T01:51:07;12.82;;;7.32;;
45252;SDS011;63171;50.520;30.486;2023-02-01T01:52:01;13.40;;;7.82;;
45252;SDS011;63171;50.520;30.486;2023-02-01T01:52:54;10.13;;;6.30;;
45252;SDS011;63171;50.520;30.486;2023-02-01T01:53:48;11.90;;;7.30;;
45252;SDS011;63171;50.520;30.486;2023-02-01T01:54:45;10.32;;;6.70;;
45252;SDS011;63171;50.520;30.486;2023-02-01T01:55:38;10.70;;;6.95;;
45252;SDS011;63171;50.520;30.486;2023-02-01T01:56:31;11.15;;;6.70;;
45252;SDS011;63171;50.520;30.486;2023-02-01T01:57:26;13.98;;;7.63;;
45252;SDS011;63171;50.520;30.486;2023-02-01T01:58:22;13.60;;;7.15;;
45252;SDS011;63171;50.520;30.486;2023-02-01T01:59:14;13.85;;;7.20;;
45252;SDS011;63171;50.520;30.486;2023-02-01T02:00:07;15.48;;;7.28;;
45252;SDS011;63171;50.520;30.486;2023-02-01T02:01:05;11.88;;;7.15;;
45252;SDS011;63171;50.520;30.486;2023-02-01T02:01:56;11.30;;;7.40;;
45252;SDS011;63171;50.520;30.486;2023-02-01T02:02:46;8.63;;;6.85;;
45252;SDS011;63171;50.520;30.486;2023-02-01T02:03:40;9.25;;;6.63;;
45252;SDS011;63171;50.520;30.486;2023-02-01T02:04:34;13.65;;;8.30;;
45252;SDS011;63171;50.520;30.486;2023-02-01T02:05:25;9.77;;;6.40;;
45252;SDS011;63171;50.520;30.486;2023-02-01T02:06:20;13.50;;;6.88;;
45252;SDS011;63171;50.520;30.486;2023-02-01T02:07:17;12.70;;;7.80;;
45252;SDS011;63171;50.520;30.486;2023-02-01T02:08:13;14.02;;;6.93;;
45252;SDS011;63171;50.520;30.486;2023-02-01T02:09:03;11.10;;;6.47;;
45252;SDS011;63171;50.520;30.486;2023-02-01T02:09:54;16.00;;;7.15;;
45252;SDS011;63171;50.520;30.486;2023-02-01T02:10:44;15.63;;;7.75;;
45252;SDS011;63171;50.520;30.486;2023-02-01T02:11:51;13.07;;;6.93;;
45252;SDS011;63171;50.520;30.486;2023-02-01T02:12:41;10.55;;;6.35;;
45252;SDS011;63171;50.520;30.486;2023-02-01T02:13:35;16.90;;;9.10;;
45252;SDS011;63171;50.520;30.486;2023-02-01T02:14:27;9.38;;;6.40;;
45252;SDS011;63171;50.520;30.486;2023-02-01T02:15:19;16.00;;;7.63;;
45252;SDS011;63171;50.520;30.486;2023-02-01T02:16:20;11.18;;;8.52;;
45252;SDS011;63171;50.520;30.486;2023-02-01T02:17:24;12.68;;;7.45;;
45252;SDS011;63171;50.520;30.486;2023-02-01T02:18:22;12.60;;;6.70;;
45252;SDS011;63171;50.520;30.486;2023-02-01T02:19:29;17.20;;;7.35;;
45252;SDS011;63171;50.520;30.486;2023-02-01T02:20:44;15.52;;;7.75;;
45252;SDS011;63171;50.520;30.486;2023-02-01T02:21:48;13.38;;;7.18;;
45252;SDS011;63171;50.520;30.486;2023-02-01T02:23:00;14.05;;;7.22;;
45252;SDS011;63171;50.520;30.486;2023-02-01T02:24:12;15.40;;;7.20;;
45252;SDS011;63171;50.520;30.486;2023-02-01T02:27:08;17.80;;;8.40;;
45252;SDS011;63171;50.520;30.486;2023-02-01T02:28:21;14.40;;;7.93;;
45252;SDS011;63171;50.520;30.486;2023-02-01T02:30:48;10.38;;;7.13;;
45252;SDS011;63171;50.520;30.486;2023-02-01T02:31:57;15.05;;;7.50;;
45252;SDS011;63171;50.520;30.486;2023-02-01T02:34:12;14.20;;;8.00;;
45252;SDS011;63171;50.520;30.486;2023-02-01T02:35:09;12.38;;;6.75;;
45252;SDS011;63171;50.520;30.486;2023-02-01T02:36:07;15.00;;;7.70;;
45252;SDS011;63171;50.520;30.486;2023-02-01T02:37:04;14.73;;;7.68;;
45252;SDS011;63171;50.520;30.486;2023-02-01T02:38:05;13.95;;;8.40;;
45252;SDS011;63171;50.520;30.486;2023-02-01T02:39:06;11.77;;;6.32;;
45252;SDS011;63171;50.520;30.486;2023-02-01T02:40:04;13.80;;;8.57;;
45252;SDS011;63171;50.520;30.486;2023-02-01T02:41:09;17.75;;;8.05;;
45252;SDS011;63171;50.520;30.486;2023-02-01T02:42:26;10.88;;;7.82;;
45252;SDS011;63171;50.520;30.486;2023-02-01T02:43:43;12.90;;;6.80;;
45252;SDS011;63171;50.520;30.486;2023-02-01T02:44:54;13.25;;;7.43;;
45252;SDS011;63171;50.520;30.486;2023-02-01T02:46:11;13.98;;;7.93;;
45252;SDS011;63171;50.520;30.486;2023-02-01T02:47:30;11.82;;;6.82;;
45252;SDS011;63171;50.520;30.486;2023-02-01T02:48:28;15.23;;;7.50;;
45252;SDS011;63171;50.520;30.486;2023-02-01T02:49:28;15.07;;;7.47;;
45252;SDS011;63171;50.520;30.486;2023-02-01T02:50:27;19.83;;;9.80;;
45252;SDS011;63171;50.520;30.486;2023-02-01T02:51:54;16.27;;;7.95;;
45252;SDS011;63171;50.520;30.486;2023-02-01T02:53:08;16.23;;;8.40;;
45252;SDS011;63171;50.520;30.486;2023-02-01T02:54:22;11.48;;;7.35;;
45252;SDS011;63171;50.520;30.486;2023-02-01T02:55:37;13.35;;;8.48;;
45252;SDS011;63171;50.520;30.486;2023-02-01T02:56:30;12.77;;;8.63;;
45252;SDS011;63171;50.520;30.486;2023-02-01T02:57:39;11.45;;;7.88;;
45252;SDS011;63171;50.520;30.486;2023-02-01T02:58:50;13.65;;;7.97;;
45252;SDS011;63171;50.520;30.486;2023-02-01T03:00:00;16.17;;;8.57;;
45252;SDS011;63171;50.520;30.486;2023-02-01T03:01:12;15.02;;;7.80;;
45252;SDS011;63171;50.520;30.486;2023-02-01T03:02:21;17.15;;;8.85;;
45252;SDS011;63171;50.520;30.486;2023-02-01T03:03:31;11.95;;;7.55;;
45252;SDS011;63171;50.520;30.486;2023-02-01T03:04:39;21.15;;;9.05;;
45252;SDS011;63171;50.520;30.486;2023-02-01T03:05:33;16.15;;;9.13;;
45252;SDS011;63171;50.520;30.486;2023-02-01T03:06:24;18.52;;;9.63;;
45252;SDS011;63171;50.520;30.486;2023-02-01T03:07:15;20.15;;;9.48;;
45252;SDS011;63171;50.520;30.486;2023-02-01T03:08:54;18.27;;;9.10;;
45252;SDS011;63171;50.520;30.486;2023-02-01T03:09:48;15.77;;;8.73;;
45252;SDS011;63171;50.520;30.486;2023-02-01T03:10:50;19.83;;;9.80;;
45252;SDS011;63171;50.520;30.486;2023-02-01T03:11:46;22.05;;;11.75;;
45252;SDS011;63171;50.520;30.486;2023-02-01T03:12:59;17.10;;;10.15;;
45252;SDS011;63171;50.520;30.486;2023-02-01T03:13:54;22.58;;;9.60;;
45252;SDS011;63171;50.520;30.486;2023-02-01T03:14:49;19.90;;;9.32;;
45252;SDS011;63171;50.520;30.486;2023-02-01T03:15:45;16.70;;;10.35;;
45252;SDS011;63171;50.520;30.486;2023-02-01T03:16:43;13.07;;;8.30;;
45252;SDS011;63171;50.520;30.486;2023-02-01T03:17:38;18.50;;;9.95;;
45252;SDS011;63171;50.520;30.486;2023-02-01T03:18:33;18.90;;;10.23;;
45252;SDS011;63171;50.520;30.486;2023-02-01T03:19:31;17.05;;;10.52;;
45252;SDS011;63171;50.520;30.486;2023-02-01T03:20:25;15.20;;;9.48;;
45252;SDS011;63171;50.520;30.486;2023-02-01T03:21:19;18.33;;;10.23;;
45252;SDS011;63171;50.520;30.486;2023-02-01T03:22:14;19.58;;;11.10;;
45252;SDS011;63171;50.520;30.486;2023-02-01T03:23:06;17.83;;;9.27;;
45252;SDS011;63171;50.520;30.486;2023-02-01T03:24:00;19.80;;;9.23;;
45252;SDS011;63171;50.520;30.486;2023-02-01T03:24:54;19.73;;;9.82;;
45252;SDS011;63171;50.520;30.486;2023-02-01T03:25:47;15.88;;;10.32;;
45252;SDS011;63171;50.520;30.486;2023-02-01T03:26:41;18.35;;;9.15;;
45252;SDS011;63171;50.520;30.486;2023-02-01T03:27:34;20.70;;;10.57;;
45252;SDS011;63171;50.520;30.486;2023-02-01T03:28:27;17.80;;;10.27;;
45252;SDS011;63171;50.520;30.486;2023-02-01T03:29:21;16.20;;;10.73;;
45252;SDS011;63171;50.520;30.486;2023-02-01T03:30:16;19.52;;;10.48;;
45252;SDS011;63171;50.520;30.486;2023-02-01T03:31:10;22.83;;;10.48;;
45252;SDS011;63171;50.520;30.486;2023-02-01T03:32:03;24.80;;;10.45;;
45252;SDS011;63171;50.520;30.486;2023-02-01T03:32:54;21.77;;;11.38;;
45252;SDS011;63171;50.520;30.486;2023-02-01T03:33:49;21.38;;;11.43;;
45252;SDS011;63171;50.520;30.486;2023-02-01T03:34:41;21.52;;;12.23;;
45252;SDS011;63171;50.520;30.486;2023-02-01T03:35:32;19.08;;;13.07;;
45252;SDS011;63171;50.520;30.486;2023-02-01T03:36:29;15.75;;;10.25;;
45252;SDS011;63171;50.520;30.486;2023-02-01T03:37:22;21.85;;;10.68;;
45252;SDS011;63171;50.520;30.486;2023-02-01T03:38:18;15.00;;;10.15;;
45252;SDS011;63171;50.520;30.486;2023-02-01T03:39:15;21.90;;;10.90;;
45252;SDS011;63171;50.520;30.486;2023-02-01T03:40:09;14.73;;;10.38;;
45252;SDS011;63171;50.520;30.486;2023-02-01T03:41:08;16.50;;;10.30;;
45252;SDS011;63171;50.520;30.486;2023-02-01T03:42:01;17.63;;;9.98;;
45252;SDS011;63171;50.520;30.486;2023-02-01T03:42:54;20.13;;;9.77;;
45252;SDS011;63171;50.520;30.486;2023-02-01T03:43:51;16.52;;;10.93;;
45252;SDS011;63171;50.520;30.486;2023-02-01T03:44:46;18.60;;;10.80;;
45252;SDS011;63171;50.520;30.486;2023-02-01T03:45:42;19.17;;;10.32;;
45252;SDS011;63171;50.520;30.486;2023-02-01T03:46:36;19.85;;;10.60;;
45252;SDS011;63171;50.520;30.486;2023-02-01T03:47:32;15.15;;;10.15;;
45252;SDS011;63171;50.520;30.486;2023-02-01T03:48:25;14.10;;;9.18;;
45252;SDS011;63171;50.520;30.486;2023-02-01T03:49:19;16.60;;;10.15;;
45252;SDS011;63171;50.520;30.486;2023-02-01T03:50:15;20.50;;;9.75;;
45252;SDS011;63171;50.520;30.486;2023-02-01T03:51:08;18.48;;;9.50;;
45252;SDS011;63171;50.520;30.486;2023-02-01T03:51:59;21.50;;;9.90;;
45252;SDS011;63171;50.520;30.486;2023-02-01T03:52:53;19.25;;;10.60;;
45252;SDS011;63171;50.520;30.486;2023-02-01T03:53:46;15.98;;;9.00;;
45252;SDS011;63171;50.520;30.486;2023-02-01T03:54:41;18.55;;;10.60;;
45252;SDS011;63171;50.520;30.486;2023-02-01T03:55:33;18.13;;;10.38;;
45252;SDS011;63171;50.520;30.486;2023-02-01T03:56:25;16.15;;;9.60;;
45252;SDS011;63171;50.520;30.486;2023-02-01T03:57:32;17.48;;;10.32;;
45252;SDS011;63171;50.520;30.486;2023-02-01T03:58:25;17.65;;;10.25;;
45252;SDS011;63171;50.520;30.486;2023-02-01T03:59:15;21.25;;;10.85;;
45252;SDS011;63171;50.520;30.486;2023-02-01T04:00:08;20.00;;;10.32;;
45252;SDS011;63171;50.520;30.486;2023-02-01T04:01:04;16.63;;;10.50;;
45252;SDS011;63171;50.520;30.486;2023-02-01T04:01:57;17.98;;;10.35;;
45252;SDS011;63171;50.520;30.486;2023-02-01T04:02:47;18.13;;;9.07;;
45252;SDS011;63171;50.520;30.486;2023-02-01T04:03:38;20.48;;;11.13;;
45252;SDS011;63171;50.520;30.486;2023-02-01T04:04:28;25.00;;;10.30;;
45252;SDS011;63171;50.520;30.486;2023-02-01T04:05:20;21.05;;;11.55;;
45252;SDS011;63171;50.520;30.486;2023-02-01T04:06:19;16.67;;;10.32;;
45252;SDS011;63171;50.520;30.486;2023-02-01T04:07:10;20.23;;;11.48;;
45252;SDS011;63171;50.520;30.486;2023-02-01T04:08:01;18.10;;;9.63;;
45252;SDS011;63171;50.520;30.486;2023-02-01T04:08:51;23.85;;;11.50;;
45252;SDS011;63171;50.520;30.486;2023-02-01T04:09:43;22.20;;;11.25;;
45252;SDS011;63171;50.520;30.486;2023-02-01T04:10:34;18.05;;;10.50;;
45252;SDS011;63171;50.520;30.486;2023-02-01T04:11:23;19.92;;;11.23;;
45252;SDS011;63171;50.520;30.486;2023-02-01T04:12:16;18.02;;;10.98;;
45252;SDS011;63171;50.520;30.486;2023-02-01T04:13:06;21.45;;;10.68;;
45252;SDS011;63171;50.520;30.486;2023-02-01T04:13:56;21.13;;;12.20;;
45252;SDS011;63171;50.520;30.486;2023-02-01T04:14:46;22.30;;;11.13;;
45252;SDS011;63171;50.520;30.486;2023-02-01T04:15:37;16.88;;;10.50;;
45252;SDS011;63171;50.520;30.486;2023-02-01T04:16:27;17.02;;;10.95;;
45252;SDS011;63171;50.520;30.486;2023-02-01T04:17:18;15.88;;;10.27;;
45252;SDS011;63171;50.520;30.486;2023-02-01T04:18:08;17.77;;;10.63;;
45252;SDS011;63171;50.520;30.486;2023-02-01T04:18:58;15.90;;;9.93;;
45252;SDS011;63171;50.520;30.486;2023-02-01T04:19:48;15.18;;;10.10;;
45252;SDS011;63171;50.520;30.486;2023-02-01T04:20:39;20.10;;;10.85;;
45252;SDS011;63171;50.520;30.486;2023-02-01T04:21:29;16.80;;;10.27;;
45252;SDS011;63171;50.520;30.486;2023-02-01T04:22:21;16.50;;;9.80;;
45252;SDS011;63171;50.520;30.486;2023-02-01T04:23:11;17.98;;;10.60;;
45252;SDS011;63171;50.520;30.486;2023-02-01T04:24:02;14.35;;;10.43;;
45252;SDS011;63171;50.520;30.486;2023-02-01T04:25:44;20.00;;;10.38;;
45252;SDS011;63171;50.520;30.486;2023-02-01T04:26:33;19.85;;;10.00;;
45252;SDS011;63171;50.520;30.486;2023-02-01T04:27:24;20.70;;;10.77;;
45252;SDS011;63171;50.520;30.486;2023-02-01T04:28:14;19.85;;;11.60;;
45252;SDS011;63171;50.520;30.486;2023-02-01T04:29:04;18.35;;;9.55;;
45252;SDS011;63171;50.520;30.486;2023-02-01T04:29:55;18.52;;;11.38;;
45252;SDS011;63171;50.520;30.486;2023-02-01T04:30:45;18.17;;;11.07;;
45252;SDS011;63171;50.520;30.486;2023-02-01T04:31:36;17.67;;;10.88;;
45252;SDS011;63171;50.520;30.486;2023-02-01T04:32:26;18.98;;;11.35;;
45252;SDS011;63171;50.520;30.486;2023-02-01T04:33:16;19.50;;;12.02;;
45252;SDS011;63171;50.520;30.486;2023-02-01T04:34:06;25.60;;;11.15;;
45252;SDS011;63171;50.520;30.486;2023-02-01T04:34:57;19.83;;;12.40;;
45252;SDS011;63171;50.520;30.486;2023-02-01T04:35:46;22.92;;;12.05;;
45252;SDS011;63171;50.520;30.486;2023-02-01T04:36:37;22.92;;;13.00;;
45252;SDS011;63171;50.520;30.486;2023-02-01T04:37:28;23.35;;;11.98;;
45252;SDS011;63171;50.520;30.486;2023-02-01T04:38:18;23.08;;;12.30;;
45252;SDS011;63171;50.520;30.486;2023-02-01T04:39:08;24.77;;;12.15;;
45252;SDS011;63171;50.520;30.486;2023-02-01T04:40:00;20.45;;;12.10;;
45252;SDS011;63171;50.520;30.486;2023-02-01T04:40:52;20.30;;;10.63;;
45252;SDS011;63171;50.520;30.486;2023-02-01T04:41:42;18.67;;;11.55;;
45252;SDS011;63171;50.520;30.486;2023-02-01T04:42:33;17.20;;;9.77;;
45252;SDS011;63171;50.520;30.486;2023-02-01T04:43:23;24.08;;;11.45;;
45252;SDS011;63171;50.520;30.486;2023-02-01T04:44:15;22.40;;;11.27;;
45252;SDS011;63171;50.520;30.486;2023-02-01T04:45:07;14.60;;;10.98;;
45252;SDS011;63171;50.520;30.486;2023-02-01T04:45:58;17.80;;;10.77;;
45252;SDS011;63171;50.520;30.486;2023-02-01T04:46:48;21.50;;;11.38;;
45252;SDS011;63171;50.520;30.486;2023-02-01T04:47:38;18.73;;;11.77;;
45252;SDS011;63171;50.520;30.486;2023-02-01T04:48:28;20.92;;;11.98;;
45252;SDS011;63171;50.520;30.486;2023-02-01T04:49:18;23.27;;;11.52;;
45252;SDS011;63171;50.520;30.486;2023-02-01T04:50:10;17.55;;;11.10;;
45252;SDS011;63171;50.520;30.486;2023-02-01T04:51:00;16.20;;;11.30;;
45252;SDS011;63171;50.520;30.486;2023-02-01T04:52:40;27.70;;;11.88;;
45252;SDS011;63171;50.520;30.486;2023-02-01T04:53:30;18.50;;;11.85;;
45252;SDS011;63171;50.520;30.486;2023-02-01T04:54:20;17.98;;;11.52;;
45252;SDS011;63171;50.520;30.486;2023-02-01T04:55:12;26.17;;;12.23;;
45252;SDS011;63171;50.520;30.486;2023-02-01T04:56:02;21.15;;;11.90;;
45252;SDS011;63171;50.520;30.486;2023-02-01T04:56:53;21.80;;;12.50;;
45252;SDS011;63171;50.520;30.486;2023-02-01T04:57:43;19.40;;;11.55;;
45252;SDS011;63171;50.520;30.486;2023-02-01T04:58:34;18.58;;;11.30;;
45252;SDS011;63171;50.520;30.486;2023-02-01T04:59:24;19.83;;;12.20;;
45252;SDS011;63171;50.520;30.486;2023-02-01T05:00:15;18.50;;;10.93;;
45252;SDS011;63171;50.520;30.486;2023-02-01T05:01:06;19.23;;;10.73;;
45252;SDS011;63171;50.520;30.486;2023-02-01T05:01:57;22.55;;;11.95;;
45252;SDS011;63171;50.520;30.486;2023-02-01T05:02:47;16.52;;;9.82;;
45252;SDS011;63171;50.520;30.486;2023-02-01T05:03:37;21.80;;;13.02;;
45252;SDS011;63171;50.520;30.486;2023-02-01T05:04:27;20.45;;;11.32;;
45252;SDS011;63171;50.520;30.486;2023-02-01T05:05:18;17.02;;;11.35;;
45252;SDS011;63171;50.520;30.486;2023-02-01T05:06:08;21.20;;;11.45;;
45252;SDS011;63171;50.520;30.486;2023-02-01T05:06:59;21.85;;;13.40;;
45252;SDS011;63171;50.520;30.486;2023-02-01T05:07:49;24.65;;;12.85;;
45252;SDS011;63171;50.520;30.486;2023-02-01T05:08:40;21.95;;;13.93;;
45252;SDS011;63171;50.520;30.486;2023-02-01T05:09:29;18.58;;;12.55;;
45252;SDS011;63171;50.520;30.486;2023-02-01T05:10:21;21.92;;;12.82;;
45252;SDS011;63171;50.520;30.486;2023-02-01T05:11:11;20.80;;;11.68;;
45252;SDS011;63171;50.520;30.486;2023-02-01T05:12:25;22.80;;;11.27;;
45252;SDS011;63171;50.520;30.486;2023-02-01T05:13:33;20.95;;;11.50;;
45252;SDS011;63171;50.520;30.486;2023-02-01T05:14:37;16.17;;;11.13;;
45252;SDS011;63171;50.520;30.486;2023-02-01T05:15:27;23.58;;;9.70;;
45252;SDS011;63171;50.520;30.486;2023-02-01T05:16:18;19.55;;;11.25;;
45252;SDS011;63171;50.520;30.486;2023-02-01T05:17:08;22.40;;;10.93;;
45252;SDS011;63171;50.520;30.486;2023-02-01T05:17:59;27.33;;;11.52;;
45252;SDS011;63171;50.520;30.486;2023-02-01T05:18:48;23.33;;;12.73;;
45252;SDS011;63171;50.520;30.486;2023-02-01T05:19:39;21.70;;;10.77;;
45252;SDS011;63171;50.520;30.486;2023-02-01T05:20:29;17.90;;;10.40;;
45252;SDS011;63171;50.520;30.486;2023-02-01T05:21:20;13.90;;;9.68;;
45252;SDS011;63171;50.520;30.486;2023-02-01T05:22:10;18.08;;;10.82;;
45252;SDS011;63171;50.520;30.486;2023-02-01T05:23:00;18.90;;;10.80;;
45252;SDS011;63171;50.520;30.486;2023-02-01T05:23:50;24.77;;;12.02;;
45252;SDS011;63171;50.520;30.486;2023-02-01T05:24:58;17.50;;;12.15;;
45252;SDS011;63171;50.520;30.486;2023-02-01T05:25:51;25.00;;;12.13;;
45252;SDS011;63171;50.520;30.486;2023-02-01T05:26:40;22.13;;;11.98;;
45252;SDS011;63171;50.520;30.486;2023-02-01T05:27:31;24.55;;;12.23;;
45252;SDS011;63171;50.520;30.486;2023-02-01T05:28:21;18.35;;;11.13;;